sensor_id;sensor_type;location;lat;lon;timestamp;pressure;altitude;pressure_sealevel;temperature
80962;BMP280;70424;55.154;14.722;2023-06-26T00:01:15;101630.75;;;18.44
80962;BMP280;70424;55.154;14.722;2023-06-26T00:03:40;101629.34;;;18.43
80962;BMP280;70424;55.154;14.722;2023-06-26T00:06:06;101629.75;;;18.37
80962;BMP280;70424;55.154;14.722;2023-06-26T00:08:31;101629.59;;;18.33
80962;BMP280;70424;55.154;14.722;2023-06-26T00:10:56;101625.28;;;18.30
80962;BMP280;70424;55.154;14.722;2023-06-26T00:13:23;101634.31;;;18.30
80962;BMP280;70424;55.154;14.722;2023-06-26T00:15:49;101637.50;;;18.25
80962;BMP280;70424;55.154;14.722;2023-06-26T00:18:15;101631.00;;;18.18
80962;BMP280;70424;55.154;14.722;2023-06-26T00:20:40;101633.75;;;18.18
80962;BMP280;70424;55.154;14.722;2023-06-26T00:23:06;101623.13;;;18.13
80962;BMP280;70424;55.154;14.722;2023-06-26T00:25:33;101630.63;;;18.10
80962;BMP280;70424;55.154;14.722;2023-06-26T00:27:58;101634.63;;;18.07
80962;BMP280;70424;55.154;14.722;2023-06-26T00:30:24;101622.75;;;18.04
80962;BMP280;70424;55.154;14.722;2023-06-26T00:32:49;101618.38;;;17.99
80962;BMP280;70424;55.154;14.722;2023-06-26T00:35:15;101614.88;;;17.99
80962;BMP280;70424;55.154;14.722;2023-06-26T00:37:41;101604.25;;;17.93
80962;BMP280;70424;55.154;14.722;2023-06-26T00:40:06;101615.84;;;17.90
80962;BMP280;70424;55.154;14.722;2023-06-26T00:42:32;101611.47;;;17.85
80962;BMP280;70424;55.154;14.722;2023-06-26T00:44:57;101614.75;;;17.81
80962;BMP280;70424;55.154;14.722;2023-06-26T00:47:23;101612.59;;;17.80
80962;BMP280;70424;55.154;14.722;2023-06-26T00:49:49;101604.91;;;17.78
80962;BMP280;70424;55.154;14.722;2023-06-26T00:52:15;101609.63;;;17.76
80962;BMP280;70424;55.154;14.722;2023-06-26T00:54:42;101609.53;;;17.74
80962;BMP280;70424;55.154;14.722;2023-06-26T00:57:07;101616.31;;;17.70
80962;BMP280;70424;55.154;14.722;2023-06-26T00:59:33;101611.31;;;17.67
80962;BMP280;70424;55.154;14.722;2023-06-26T01:01:59;101598.72;;;17.64
80962;BMP280;70424;55.154;14.722;2023-06-26T01:04:24;101602.72;;;17.61
80962;BMP280;70424;55.154;14.722;2023-06-26T01:06:53;101593.72;;;17.60
80962;BMP280;70424;55.154;14.722;2023-06-26T01:09:19;101596.38;;;17.58
80962;BMP280;70424;55.154;14.722;2023-06-26T01:11:45;101597.81;;;17.59
80962;BMP280;70424;55.154;14.722;2023-06-26T01:14:11;101589.41;;;17.57
80962;BMP280;70424;55.154;14.722;2023-06-26T01:16:38;101588.59;;;17.55
80962;BMP280;70424;55.154;14.722;2023-06-26T01:19:09;101590.53;;;17.52
80962;BMP280;70424;55.154;14.722;2023-06-26T01:21:40;101578.56;;;17.48
80962;BMP280;70424;55.154;14.722;2023-06-26T01:24:17;101584.75;;;17.46
80962;BMP280;70424;55.154;14.722;2023-06-26T01:26:47;101578.38;;;17.44
80962;BMP280;70424;55.154;14.722;2023-06-26T01:29:15;101575.53;;;17.42
80962;BMP280;70424;55.154;14.722;2023-06-26T01:31:41;101571.34;;;17.41
80962;BMP280;70424;55.154;14.722;2023-06-26T01:34:07;101571.84;;;17.37
80962;BMP280;70424;55.154;14.722;2023-06-26T01:36:33;101565.50;;;17.34
80962;BMP280;70424;55.154;14.722;2023-06-26T01:38:58;101558.66;;;17.35
80962;BMP280;70424;55.154;14.722;2023-06-26T01:41:24;101557.13;;;17.32
80962;BMP280;70424;55.154;14.722;2023-06-26T01:44:07;101559.19;;;17.32
80962;BMP280;70424;55.154;14.722;2023-06-26T01:46:40;101562.53;;;17.30
80962;BMP280;70424;55.154;14.722;2023-06-26T01:49:19;101563.16;;;17.29
80962;BMP280;70424;55.154;14.722;2023-06-26T01:51:53;101552.53;;;17.23
80962;BMP280;70424;55.154;14.722;2023-06-26T01:54:21;101551.94;;;17.25
80962;BMP280;70424;55.154;14.722;2023-06-26T01:56:49;101549.88;;;17.25
80962;BMP280;70424;55.154;14.722;2023-06-26T01:59:18;101544.94;;;17.24
80962;BMP280;70424;55.154;14.722;2023-06-26T02:01:44;101545.38;;;17.18
80962;BMP280;70424;55.154;14.722;2023-06-26T02:04:10;101534.03;;;17.12
80962;BMP280;70424;55.154;14.722;2023-06-26T02:06:35;101542.31;;;17.12
80962;BMP280;70424;55.154;14.722;2023-06-26T02:09:00;101538.63;;;17.08
80962;BMP280;70424;55.154;14.722;2023-06-26T02:11:26;101537.84;;;17.05
80962;BMP280;70424;55.154;14.722;2023-06-26T02:13:51;101538.44;;;17.03
80962;BMP280;70424;55.154;14.722;2023-06-26T02:16:16;101529.25;;;16.99
80962;BMP280;70424;55.154;14.722;2023-06-26T02:18:42;101529.84;;;16.97
80962;BMP280;70424;55.154;14.722;2023-06-26T02:21:08;101531.19;;;16.96
80962;BMP280;70424;55.154;14.722;2023-06-26T02:23:34;101524.94;;;16.96
80962;BMP280;70424;55.154;14.722;2023-06-26T02:25:59;101524.03;;;16.91
80962;BMP280;70424;55.154;14.722;2023-06-26T02:28:25;101530.38;;;16.94
80962;BMP280;70424;55.154;14.722;2023-06-26T02:30:50;101528.94;;;16.93
80962;BMP280;70424;55.154;14.722;2023-06-26T02:33:16;101528.13;;;16.90
80962;BMP280;70424;55.154;14.722;2023-06-26T02:35:41;101528.13;;;16.90
80962;BMP280;70424;55.154;14.722;2023-06-26T02:38:06;101532.09;;;16.87
80962;BMP280;70424;55.154;14.722;2023-06-26T02:40:32;101524.47;;;16.86
80962;BMP280;70424;55.154;14.722;2023-06-26T02:42:58;101513.09;;;16.80
80962;BMP280;70424;55.154;14.722;2023-06-26T02:45:23;101526.47;;;16.85
80962;BMP280;70424;55.154;14.722;2023-06-26T02:47:49;101530.00;;;16.86
80962;BMP280;70424;55.154;14.722;2023-06-26T02:50:14;101530.00;;;16.86
80962;BMP280;70424;55.154;14.722;2023-06-26T02:52:40;101519.41;;;16.82
80962;BMP280;70424;55.154;14.722;2023-06-26T02:55:05;101520.06;;;16.81
80962;BMP280;70424;55.154;14.722;2023-06-26T02:57:31;101527.00;;;16.82
80962;BMP280;70424;55.154;14.722;2023-06-26T02:59:56;101526.78;;;16.78
80962;BMP280;70424;55.154;14.722;2023-06-26T03:02:21;101526.78;;;16.78
80962;BMP280;70424;55.154;14.722;2023-06-26T03:04:47;101525.34;;;16.77
80962;BMP280;70424;55.154;14.722;2023-06-26T03:07:12;101526.00;;;16.75
80962;BMP280;70424;55.154;14.722;2023-06-26T03:09:37;101528.75;;;16.75
80962;BMP280;70424;55.154;14.722;2023-06-26T03:12:03;101530.78;;;16.75
80962;BMP280;70424;55.154;14.722;2023-06-26T03:14:28;101525.16;;;16.73
80962;BMP280;70424;55.154;14.722;2023-06-26T03:16:55;101516.13;;;16.72
80962;BMP280;70424;55.154;14.722;2023-06-26T03:19:23;101519.53;;;16.71
80962;BMP280;70424;55.154;14.722;2023-06-26T03:21:48;101518.19;;;16.72
80962;BMP280;70424;55.154;14.722;2023-06-26T03:24:13;101510.63;;;16.72
80962;BMP280;70424;55.154;14.722;2023-06-26T03:26:39;101505.22;;;16.74
80962;BMP280;70424;55.154;14.722;2023-06-26T03:29:04;101501.84;;;16.76
80962;BMP280;70424;55.154;14.722;2023-06-26T03:31:29;101507.59;;;16.80
80962;BMP280;70424;55.154;14.722;2023-06-26T03:33:55;101501.44;;;16.81
80962;BMP280;70424;55.154;14.722;2023-06-26T03:36:20;101506.44;;;16.85
80962;BMP280;70424;55.154;14.722;2023-06-26T03:38:45;101509.31;;;16.87
80962;BMP280;70424;55.154;14.722;2023-06-26T03:41:11;101506.66;;;16.89
80962;BMP280;70424;55.154;14.722;2023-06-26T03:43:36;101498.66;;;16.95
80962;BMP280;70424;55.154;14.722;2023-06-26T03:46:01;101499.59;;;16.99
80962;BMP280;70424;55.154;14.722;2023-06-26T03:48:27;101501.94;;;17.05
80962;BMP280;70424;55.154;14.722;2023-06-26T03:50:52;101497.19;;;17.08
80962;BMP280;70424;55.154;14.722;2023-06-26T03:53:18;101492.78;;;17.16
80962;BMP280;70424;55.154;14.722;2023-06-26T03:55:43;101494.50;;;17.23
80962;BMP280;70424;55.154;14.722;2023-06-26T03:58:08;101497.69;;;17.31
80962;BMP280;70424;55.154;14.722;2023-06-26T04:00:34;101499.47;;;17.41
80962;BMP280;70424;55.154;14.722;2023-06-26T04:02:59;101493.59;;;17.48
80962;BMP280;70424;55.154;14.722;2023-06-26T04:05:25;101491.22;;;17.56
80962;BMP280;70424;55.154;14.722;2023-06-26T04:07:51;101488.13;;;17.64
80962;BMP280;70424;55.154;14.722;2023-06-26T04:10:16;101490.56;;;17.72
80962;BMP280;70424;55.154;14.722;2023-06-26T04:12:42;101482.63;;;17.80
80962;BMP280;70424;55.154;14.722;2023-06-26T04:15:07;101480.84;;;17.86
80962;BMP280;70424;55.154;14.722;2023-06-26T04:17:33;101471.47;;;17.93
80962;BMP280;70424;55.154;14.722;2023-06-26T04:19:58;101468.34;;;18.01
80962;BMP280;70424;55.154;14.722;2023-06-26T04:22:24;101469.31;;;18.08
80962;BMP280;70424;55.154;14.722;2023-06-26T04:24:51;101466.13;;;18.13
80962;BMP280;70424;55.154;14.722;2023-06-26T04:27:16;101475.50;;;18.22
80962;BMP280;70424;55.154;14.722;2023-06-26T04:29:42;101473.06;;;18.30
80962;BMP280;70424;55.154;14.722;2023-06-26T04:32:07;101472.06;;;18.39
80962;BMP280;70424;55.154;14.722;2023-06-26T04:34:33;101476.63;;;18.48
80962;BMP280;70424;55.154;14.722;2023-06-26T04:37:01;101467.31;;;18.57
80962;BMP280;70424;55.154;14.722;2023-06-26T04:39:28;101464.84;;;18.65
80962;BMP280;70424;55.154;14.722;2023-06-26T04:41:54;101465.97;;;18.76
80962;BMP280;70424;55.154;14.722;2023-06-26T04:44:19;101457.34;;;18.86
80962;BMP280;70424;55.154;14.722;2023-06-26T04:46:45;101465.38;;;18.95
80962;BMP280;70424;55.154;14.722;2023-06-26T04:49:10;101461.69;;;19.06
80962;BMP280;70424;55.154;14.722;2023-06-26T04:51:36;101465.53;;;19.17
80962;BMP280;70424;55.154;14.722;2023-06-26T04:54:10;101460.38;;;19.27
80962;BMP280;70424;55.154;14.722;2023-06-26T04:56:35;101458.00;;;19.37
80962;BMP280;70424;55.154;14.722;2023-06-26T04:59:02;101459.16;;;19.50
80962;BMP280;70424;55.154;14.722;2023-06-26T05:01:28;101462.31;;;19.60
80962;BMP280;70424;55.154;14.722;2023-06-26T05:04:00;101461.34;;;19.71
80962;BMP280;70424;55.154;14.722;2023-06-26T05:06:25;101461.78;;;19.83
80962;BMP280;70424;55.154;14.722;2023-06-26T05:08:51;101462.28;;;19.98
80962;BMP280;70424;55.154;14.722;2023-06-26T05:11:16;101458.44;;;20.07
80962;BMP280;70424;55.154;14.722;2023-06-26T05:13:42;101455.38;;;20.18
80962;BMP280;70424;55.154;14.722;2023-06-26T05:16:08;101459.25;;;20.31
80962;BMP280;70424;55.154;14.722;2023-06-26T05:18:34;101459.69;;;20.43
80962;BMP280;70424;55.154;14.722;2023-06-26T05:21:00;101457.22;;;20.53
80962;BMP280;70424;55.154;14.722;2023-06-26T05:23:26;101459.00;;;20.65
80962;BMP280;70424;55.154;14.722;2023-06-26T05:25:52;101459.28;;;20.75
80962;BMP280;70424;55.154;14.722;2023-06-26T05:28:18;101466.59;;;20.86
80962;BMP280;70424;55.154;14.722;2023-06-26T05:30:43;101466.97;;;20.98
80962;BMP280;70424;55.154;14.722;2023-06-26T05:33:11;101458.97;;;21.08
80962;BMP280;70424;55.154;14.722;2023-06-26T05:35:36;101456.41;;;21.16
80962;BMP280;70424;55.154;14.722;2023-06-26T05:38:02;101454.00;;;21.28
80962;BMP280;70424;55.154;14.722;2023-06-26T05:40:27;101454.94;;;21.37
80962;BMP280;70424;55.154;14.722;2023-06-26T05:42:53;101451.09;;;21.48
80962;BMP280;70424;55.154;14.722;2023-06-26T05:45:18;101451.44;;;21.60
80962;BMP280;70424;55.154;14.722;2023-06-26T05:47:44;101452.53;;;21.75
80962;BMP280;70424;55.154;14.722;2023-06-26T05:50:10;101446.63;;;21.89
80962;BMP280;70424;55.154;14.722;2023-06-26T05:52:36;101447.78;;;22.06
80962;BMP280;70424;55.154;14.722;2023-06-26T05:55:02;101438.41;;;22.21
80962;BMP280;70424;55.154;14.722;2023-06-26T05:57:29;101443.06;;;22.40
80962;BMP280;70424;55.154;14.722;2023-06-26T05:59:55;101437.81;;;22.54
80962;BMP280;70424;55.154;14.722;2023-06-26T06:02:21;101431.25;;;22.71
80962;BMP280;70424;55.154;14.722;2023-06-26T06:04:47;101435.16;;;22.90
80962;BMP280;70424;55.154;14.722;2023-06-26T06:07:13;101434.88;;;23.10
80962;BMP280;70424;55.154;14.722;2023-06-26T06:09:38;101425.50;;;23.29
80962;BMP280;70424;55.154;14.722;2023-06-26T06:12:04;101428.00;;;23.49
80962;BMP280;70424;55.154;14.722;2023-06-26T06:14:31;101424.03;;;23.62
80962;BMP280;70424;55.154;14.722;2023-06-26T06:16:56;101420.00;;;23.71
80962;BMP280;70424;55.154;14.722;2023-06-26T06:19:22;101423.09;;;23.87
80962;BMP280;70424;55.154;14.722;2023-06-26T06:21:48;101425.44;;;24.01
80962;BMP280;70424;55.154;14.722;2023-06-26T06:24:13;101415.16;;;24.16
80962;BMP280;70424;55.154;14.722;2023-06-26T06:26:39;101417.56;;;24.34
80962;BMP280;70424;55.154;14.722;2023-06-26T06:29:04;101417.81;;;24.52
80962;BMP280;70424;55.154;14.722;2023-06-26T06:31:31;101409.72;;;24.72
80962;BMP280;70424;55.154;14.722;2023-06-26T06:33:56;101410.72;;;24.97
80962;BMP280;70424;55.154;14.722;2023-06-26T06:36:22;101408.97;;;25.28
80962;BMP280;70424;55.154;14.722;2023-06-26T06:38:47;101412.09;;;25.60
80962;BMP280;70424;55.154;14.722;2023-06-26T06:41:12;101403.25;;;25.88
80962;BMP280;70424;55.154;14.722;2023-06-26T06:43:38;101399.19;;;26.09
80962;BMP280;70424;55.154;14.722;2023-06-26T06:46:04;101395.81;;;26.29
80962;BMP280;70424;55.154;14.722;2023-06-26T06:48:31;101407.19;;;26.53
80962;BMP280;70424;55.154;14.722;2023-06-26T06:50:57;101403.72;;;26.71
80962;BMP280;70424;55.154;14.722;2023-06-26T06:53:22;101401.00;;;26.89
80962;BMP280;70424;55.154;14.722;2023-06-26T06:55:48;101403.13;;;26.97
80962;BMP280;70424;55.154;14.722;2023-06-26T06:58:14;101396.16;;;27.08
80962;BMP280;70424;55.154;14.722;2023-06-26T07:00:39;101397.59;;;27.17
80962;BMP280;70424;55.154;14.722;2023-06-26T07:03:04;101396.88;;;27.27
80962;BMP280;70424;55.154;14.722;2023-06-26T07:05:30;101403.91;;;27.36
80962;BMP280;70424;55.154;14.722;2023-06-26T07:07:55;101400.41;;;27.45
80962;BMP280;70424;55.154;14.722;2023-06-26T07:10:21;101394.09;;;27.57
80962;BMP280;70424;55.154;14.722;2023-06-26T07:12:46;101394.78;;;27.66
80962;BMP280;70424;55.154;14.722;2023-06-26T07:15:12;101394.78;;;27.74
80962;BMP280;70424;55.154;14.722;2023-06-26T07:17:37;101394.06;;;27.85
80962;BMP280;70424;55.154;14.722;2023-06-26T07:20:04;101387.78;;;27.89
80962;BMP280;70424;55.154;14.722;2023-06-26T07:22:34;101389.16;;;27.88
80962;BMP280;70424;55.154;14.722;2023-06-26T07:24:59;101387.03;;;27.93
80962;BMP280;70424;55.154;14.722;2023-06-26T07:27:25;101372.28;;;27.98
80962;BMP280;70424;55.154;14.722;2023-06-26T07:29:50;101381.41;;;28.03
80962;BMP280;70424;55.154;14.722;2023-06-26T07:32:16;101377.19;;;28.10
80962;BMP280;70424;55.154;14.722;2023-06-26T07:34:41;101368.03;;;28.17
80962;BMP280;70424;55.154;14.722;2023-06-26T07:37:06;101359.59;;;28.15
80962;BMP280;70424;55.154;14.722;2023-06-26T07:39:32;101366.59;;;28.18
80962;BMP280;70424;55.154;14.722;2023-06-26T07:41:57;101370.13;;;28.23
80962;BMP280;70424;55.154;14.722;2023-06-26T07:44:26;101358.16;;;28.28
80962;BMP280;70424;55.154;14.722;2023-06-26T07:46:52;101361.63;;;28.37
80962;BMP280;70424;55.154;14.722;2023-06-26T07:49:17;101358.78;;;28.47
80962;BMP280;70424;55.154;14.722;2023-06-26T07:51:43;101358.72;;;28.57
80962;BMP280;70424;55.154;14.722;2023-06-26T07:54:08;101350.19;;;28.69
80962;BMP280;70424;55.154;14.722;2023-06-26T07:56:53;101363.47;;;28.85
80962;BMP280;70424;55.154;14.722;2023-06-26T07:59:20;101358.47;;;28.98
80962;BMP280;70424;55.154;14.722;2023-06-26T08:01:46;101349.97;;;29.04
80962;BMP280;70424;55.154;14.722;2023-06-26T08:04:12;101355.56;;;29.12
80962;BMP280;70424;55.154;14.722;2023-06-26T08:06:38;101349.13;;;29.24
80962;BMP280;70424;55.154;14.722;2023-06-26T08:09:08;101359.59;;;29.35
80962;BMP280;70424;55.154;14.722;2023-06-26T08:11:34;101358.81;;;29.43
80962;BMP280;70424;55.154;14.722;2023-06-26T08:13:59;101354.53;;;29.50
80962;BMP280;70424;55.154;14.722;2023-06-26T08:16:25;101355.91;;;29.55
80962;BMP280;70424;55.154;14.722;2023-06-26T08:18:50;101355.88;;;29.59
80962;BMP280;70424;55.154;14.722;2023-06-26T08:21:16;101353.66;;;29.70
80962;BMP280;70424;55.154;14.722;2023-06-26T08:23:41;101351.47;;;29.78
80962;BMP280;70424;55.154;14.722;2023-06-26T08:26:06;101357.13;;;29.74
80962;BMP280;70424;55.154;14.722;2023-06-26T08:28:32;101349.41;;;29.71
80962;BMP280;70424;55.154;14.722;2023-06-26T08:30:57;101347.41;;;29.61
80962;BMP280;70424;55.154;14.722;2023-06-26T08:33:22;101353.03;;;29.59
80962;BMP280;70424;55.154;14.722;2023-06-26T08:35:48;101346.72;;;29.59
80962;BMP280;70424;55.154;14.722;2023-06-26T08:38:13;101348.78;;;29.64
80962;BMP280;70424;55.154;14.722;2023-06-26T08:40:38;101340.31;;;29.66
80962;BMP280;70424;55.154;14.722;2023-06-26T08:43:04;101338.84;;;29.69
80962;BMP280;70424;55.154;14.722;2023-06-26T08:45:29;101344.44;;;29.75
80962;BMP280;70424;55.154;14.722;2023-06-26T08:47:55;101340.91;;;29.77
80962;BMP280;70424;55.154;14.722;2023-06-26T08:50:23;101340.09;;;29.86
80962;BMP280;70424;55.154;14.722;2023-06-26T08:52:54;101340.69;;;29.95
80962;BMP280;70424;55.154;14.722;2023-06-26T08:55:23;101342.00;;;30.04
80962;BMP280;70424;55.154;14.722;2023-06-26T08:57:51;101338.44;;;30.06
80962;BMP280;70424;55.154;14.722;2023-06-26T09:00:17;101332.16;;;30.01
80962;BMP280;70424;55.154;14.722;2023-06-26T09:02:43;101335.59;;;30.08
80962;BMP280;70424;55.154;14.722;2023-06-26T09:05:09;101329.88;;;30.16
80962;BMP280;70424;55.154;14.722;2023-06-26T09:07:35;101331.31;;;30.13
80962;BMP280;70424;55.154;14.722;2023-06-26T09:10:00;101336.84;;;30.21
80962;BMP280;70424;55.154;14.722;2023-06-26T09:12:28;101331.19;;;30.23
80962;BMP280;70424;55.154;14.722;2023-06-26T09:14:55;101326.88;;;30.30
80962;BMP280;70424;55.154;14.722;2023-06-26T09:17:25;101323.09;;;30.46
80962;BMP280;70424;55.154;14.722;2023-06-26T09:19:51;101328.53;;;30.60
80962;BMP280;70424;55.154;14.722;2023-06-26T09:22:17;101322.13;;;30.65
80962;BMP280;70424;55.154;14.722;2023-06-26T09:24:43;101331.78;;;30.80
80962;BMP280;70424;55.154;14.722;2023-06-26T09:27:09;101328.75;;;30.93
80962;BMP280;70424;55.154;14.722;2023-06-26T09:29:35;101318.78;;;31.00
80962;BMP280;70424;55.154;14.722;2023-06-26T09:32:00;101318.53;;;31.12
80962;BMP280;70424;55.154;14.722;2023-06-26T09:34:35;101311.47;;;31.13
80962;BMP280;70424;55.154;14.722;2023-06-26T09:37:00;101315.13;;;31.05
80962;BMP280;70424;55.154;14.722;2023-06-26T09:39:31;101297.28;;;31.17
80962;BMP280;70424;55.154;14.722;2023-06-26T09:41:56;101311.00;;;31.39
80962;BMP280;70424;55.154;14.722;2023-06-26T09:44:22;101301.31;;;31.65
80962;BMP280;70424;55.154;14.722;2023-06-26T09:46:48;101299.97;;;31.95
80962;BMP280;70424;55.154;14.722;2023-06-26T09:49:13;101299.41;;;32.21
80962;BMP280;70424;55.154;14.722;2023-06-26T09:51:40;101294.72;;;32.40
80962;BMP280;70424;55.154;14.722;2023-06-26T09:54:07;101296.78;;;32.44
80962;BMP280;70424;55.154;14.722;2023-06-26T09:56:33;101292.16;;;32.59
80962;BMP280;70424;55.154;14.722;2023-06-26T09:59:00;101288.78;;;32.81
80962;BMP280;70424;55.154;14.722;2023-06-26T10:01:27;101286.00;;;33.06
80962;BMP280;70424;55.154;14.722;2023-06-26T10:03:56;101293.81;;;33.32
80962;BMP280;70424;55.154;14.722;2023-06-26T10:06:31;101278.34;;;33.52
80962;BMP280;70424;55.154;14.722;2023-06-26T10:08:59;101272.19;;;33.68
80962;BMP280;70424;55.154;14.722;2023-06-26T10:11:32;101267.34;;;33.87
80962;BMP280;70424;55.154;14.722;2023-06-26T10:13:59;101266.69;;;34.10
80962;BMP280;70424;55.154;14.722;2023-06-26T10:16:26;101270.75;;;34.37
80962;BMP280;70424;55.154;14.722;2023-06-26T10:18:56;101266.84;;;34.70
80962;BMP280;70424;55.154;14.722;2023-06-26T10:21:24;101263.75;;;34.97
80962;BMP280;70424;55.154;14.722;2023-06-26T10:23:52;101267.72;;;35.43
80962;BMP280;70424;55.154;14.722;2023-06-26T10:26:20;101267.59;;;35.82
80962;BMP280;70424;55.154;14.722;2023-06-26T10:28:47;101264.16;;;36.49
80962;BMP280;70424;55.154;14.722;2023-06-26T10:31:19;101251.59;;;37.23
80962;BMP280;70424;55.154;14.722;2023-06-26T10:33:45;101253.19;;;37.93
80962;BMP280;70424;55.154;14.722;2023-06-26T10:36:19;101253.75;;;38.52
80962;BMP280;70424;55.154;14.722;2023-06-26T10:38:52;101257.72;;;38.84
80962;BMP280;70424;55.154;14.722;2023-06-26T10:41:22;101245.06;;;39.07
80962;BMP280;70424;55.154;14.722;2023-06-26T10:43:59;101244.13;;;38.98
80962;BMP280;70424;55.154;14.722;2023-06-26T10:46:33;101241.13;;;38.74
80962;BMP280;70424;55.154;14.722;2023-06-26T10:49:00;101233.88;;;38.35
80962;BMP280;70424;55.154;14.722;2023-06-26T10:51:27;101240.97;;;37.95
80962;BMP280;70424;55.154;14.722;2023-06-26T10:53:57;101237.38;;;37.67
80962;BMP280;70424;55.154;14.722;2023-06-26T10:56:48;101245.81;;;37.54
80962;BMP280;70424;55.154;14.722;2023-06-26T11:01:41;101241.97;;;37.74
80962;BMP280;70424;55.154;14.722;2023-06-26T11:04:08;101231.31;;;38.02
80962;BMP280;70424;55.154;14.722;2023-06-26T11:06:35;101223.63;;;38.41
80962;BMP280;70424;55.154;14.722;2023-06-26T11:14:16;101213.97;;;38.48
80962;BMP280;70424;55.154;14.722;2023-06-26T11:16:42;101217.56;;;38.34
80962;BMP280;70424;55.154;14.722;2023-06-26T11:19:09;101217.56;;;37.92
80962;BMP280;70424;55.154;14.722;2023-06-26T11:21:34;101210.63;;;37.60
80962;BMP280;70424;55.154;14.722;2023-06-26T11:24:01;101216.69;;;37.37
80962;BMP280;70424;55.154;14.722;2023-06-26T11:26:27;101208.59;;;37.12
80962;BMP280;70424;55.154;14.722;2023-06-26T11:28:56;101206.56;;;36.94
80962;BMP280;70424;55.154;14.722;2023-06-26T11:31:28;101210.06;;;36.80
80962;BMP280;70424;55.154;14.722;2023-06-26T11:34:01;101202.25;;;36.64
80962;BMP280;70424;55.154;14.722;2023-06-26T11:36:29;101204.66;;;36.74
80962;BMP280;70424;55.154;14.722;2023-06-26T11:39:01;101191.63;;;36.94
80962;BMP280;70424;55.154;14.722;2023-06-26T11:41:30;101197.69;;;37.02
80962;BMP280;70424;55.154;14.722;2023-06-26T11:43:59;101191.41;;;37.29
80962;BMP280;70424;55.154;14.722;2023-06-26T11:46:25;101187.78;;;37.45
80962;BMP280;70424;55.154;14.722;2023-06-26T11:48:50;101194.97;;;37.73
80962;BMP280;70424;55.154;14.722;2023-06-26T11:51:16;101192.16;;;38.01
80962;BMP280;70424;55.154;14.722;2023-06-26T11:53:42;101187.41;;;38.10
80962;BMP280;70424;55.154;14.722;2023-06-26T11:56:12;101187.88;;;37.87
80962;BMP280;70424;55.154;14.722;2023-06-26T11:59:05;101195.56;;;37.47
80962;BMP280;70424;55.154;14.722;2023-06-26T12:04:04;101197.38;;;36.62
80962;BMP280;70424;55.154;14.722;2023-06-26T12:06:40;101197.56;;;36.08
80962;BMP280;70424;55.154;14.722;2023-06-26T12:09:09;101200.84;;;35.63
80962;BMP280;70424;55.154;14.722;2023-06-26T12:11:38;101193.88;;;35.22
80962;BMP280;70424;55.154;14.722;2023-06-26T12:14:05;101186.19;;;34.81
80962;BMP280;70424;55.154;14.722;2023-06-26T12:16:34;101193.28;;;34.41
80962;BMP280;70424;55.154;14.722;2023-06-26T12:19:00;101183.50;;;34.15
80962;BMP280;70424;55.154;14.722;2023-06-26T12:21:44;101174.53;;;33.86
80962;BMP280;70424;55.154;14.722;2023-06-26T12:24:13;101164.03;;;33.60
80962;BMP280;70424;55.154;14.722;2023-06-26T12:26:42;101165.91;;;33.44
80962;BMP280;70424;55.154;14.722;2023-06-26T12:29:13;101163.50;;;33.30
80962;BMP280;70424;55.154;14.722;2023-06-26T12:31:43;101154.72;;;33.16
80962;BMP280;70424;55.154;14.722;2023-06-26T12:34:10;101159.94;;;33.07
80962;BMP280;70424;55.154;14.722;2023-06-26T12:36:41;101153.44;;;32.86
80962;BMP280;70424;55.154;14.722;2023-06-26T12:39:09;101144.63;;;32.71
80962;BMP280;70424;55.154;14.722;2023-06-26T12:41:46;101136.81;;;32.47
80962;BMP280;70424;55.154;14.722;2023-06-26T12:44:19;101127.25;;;32.34
80962;BMP280;70424;55.154;14.722;2023-06-26T12:46:50;101115.22;;;32.35
80962;BMP280;70424;55.154;14.722;2023-06-26T12:49:18;101109.72;;;32.54
80962;BMP280;70424;55.154;14.722;2023-06-26T12:51:44;101078.59;;;32.81
80962;BMP280;70424;55.154;14.722;2023-06-26T12:54:10;101081.94;;;33.10
80962;BMP280;70424;55.154;14.722;2023-06-26T12:56:35;101079.56;;;33.41
80962;BMP280;70424;55.154;14.722;2023-06-26T12:59:00;101072.34;;;33.67
80962;BMP280;70424;55.154;14.722;2023-06-26T13:01:26;101064.16;;;34.00
80962;BMP280;70424;55.154;14.722;2023-06-26T13:03:53;101055.91;;;34.13
80962;BMP280;70424;55.154;14.722;2023-06-26T13:06:19;101045.91;;;34.35
80962;BMP280;70424;55.154;14.722;2023-06-26T13:08:45;101054.38;;;34.56
80962;BMP280;70424;55.154;14.722;2023-06-26T13:11:10;101053.00;;;34.73
80962;BMP280;70424;55.154;14.722;2023-06-26T13:13:35;101038.41;;;34.83
80962;BMP280;70424;55.154;14.722;2023-06-26T13:16:01;101037.84;;;34.41
80962;BMP280;70424;55.154;14.722;2023-06-26T13:18:27;101038.13;;;34.15
80962;BMP280;70424;55.154;14.722;2023-06-26T13:20:52;101044.44;;;33.96
80962;BMP280;70424;55.154;14.722;2023-06-26T13:23:18;101037.09;;;33.83
80962;BMP280;70424;55.154;14.722;2023-06-26T13:25:45;101037.25;;;33.79
80962;BMP280;70424;55.154;14.722;2023-06-26T13:28:10;101023.28;;;33.73
80962;BMP280;70424;55.154;14.722;2023-06-26T13:30:36;101011.38;;;33.68
80962;BMP280;70424;55.154;14.722;2023-06-26T13:33:01;101010.53;;;33.51
80962;BMP280;70424;55.154;14.722;2023-06-26T13:35:27;101015.78;;;33.42
80962;BMP280;70424;55.154;14.722;2023-06-26T13:37:52;101018.38;;;33.28
80962;BMP280;70424;55.154;14.722;2023-06-26T13:40:18;101023.06;;;33.15
80962;BMP280;70424;55.154;14.722;2023-06-26T13:42:43;101032.09;;;32.96
80962;BMP280;70424;55.154;14.722;2023-06-26T13:45:09;101025.59;;;32.77
80962;BMP280;70424;55.154;14.722;2023-06-26T13:47:35;101032.47;;;32.59
80962;BMP280;70424;55.154;14.722;2023-06-26T13:50:03;101031.06;;;32.34
80962;BMP280;70424;55.154;14.722;2023-06-26T13:52:29;101026.00;;;32.11